createdAt,value
2018-12-07T00:00:30.163Z,10.60
2018-12-07T00:02:58.543Z,10.60
2018-12-07T00:05:27.837Z,10.60
2018-12-07T00:07:56.556Z,10.60
2018-12-07T00:10:25.050Z,10.60
2018-12-07T00:12:53.428Z,10.60
2018-12-07T00:15:21.793Z,10.60
2018-12-07T00:17:51.642Z,10.60
2018-12-07T00:20:20.105Z,10.70
2018-12-07T00:22:48.485Z,10.60
2018-12-07T00:25:17.039Z,10.50
2018-12-07T00:27:45.975Z,10.70
2018-12-07T00:30:14.343Z,10.70
2018-12-07T00:32:42.873Z,10.70
2018-12-07T00:35:11.333Z,10.70
2018-12-07T00:37:39.816Z,10.70
2018-12-07T00:40:08.297Z,10.70
2018-12-07T00:42:36.754Z,10.70
2018-12-07T00:45:05.620Z,10.70
2018-12-07T00:47:34.028Z,10.70
2018-12-07T00:50:02.456Z,10.70
2018-12-07T00:52:30.828Z,10.80
2018-12-07T00:55:01.629Z,10.60
2018-12-07T00:57:30.050Z,10.70
2018-12-07T00:59:58.583Z,10.60
2018-12-07T01:02:28.149Z,10.60
2018-12-07T01:04:56.619Z,10.60
2018-12-07T01:07:25.014Z,10.70
2018-12-07T01:09:54.674Z,10.70
2018-12-07T01:12:23.484Z,10.80
2018-12-07T01:14:52.221Z,10.70
2018-12-07T01:17:22.599Z,10.70
2018-12-07T01:19:51.013Z,10.70
2018-12-07T01:22:19.458Z,10.60
2018-12-07T01:24:48.579Z,10.60
2018-12-07T01:27:17.917Z,10.60
2018-12-07T01:29:46.326Z,10.60
2018-12-07T01:32:17.055Z,10.60
2018-12-07T01:34:45.522Z,10.40
2018-12-07T01:37:13.897Z,10.60
2018-12-07T01:39:43.447Z,10.50
2018-12-07T01:42:12.037Z,10.60
2018-12-07T01:44:41.424Z,10.60
2018-12-07T01:47:10.886Z,10.60
2018-12-07T01:49:39.319Z,10.50
2018-12-07T01:52:09.268Z,10.50
2018-12-07T01:54:37.703Z,10.50
2018-12-07T01:57:06.081Z,10.50
2018-12-07T01:59:34.848Z,10.50
2018-12-07T02:02:03.383Z,10.60
2018-12-07T02:04:31.740Z,10.50
2018-12-07T02:07:01.576Z,10.50
2018-12-07T02:09:30.659Z,10.50
2018-12-07T02:11:58.994Z,10.50
2018-12-07T02:14:29.278Z,10.50
2018-12-07T02:16:57.781Z,10.50
2018-12-07T02:19:26.336Z,10.40
2018-12-07T02:21:56.338Z,10.40
2018-12-07T02:24:24.693Z,10.40
2018-12-07T02:26:53.074Z,10.40
2018-12-07T02:29:23.050Z,10.40
2018-12-07T02:31:51.412Z,10.40
2018-12-07T02:34:19.765Z,10.30
2018-12-07T02:36:49.982Z,10.30
2018-12-07T02:39:18.402Z,10.30
2018-12-07T02:41:46.780Z,10.30
2018-12-07T02:44:16.727Z,10.30
2018-12-07T02:46:45.092Z,10.20
2018-12-07T02:49:13.492Z,10.20
2018-12-07T02:51:41.836Z,10.20
2018-12-07T02:54:10.319Z,10.20
2018-12-07T02:56:39.507Z,10.10
2018-12-07T02:59:07.953Z,10.20
2018-12-07T03:01:36.420Z,10.20
2018-12-07T03:04:06.291Z,10.20
2018-12-07T03:06:34.665Z,10.20
2018-12-07T03:09:04.412Z,10.20
2018-12-07T03:11:34.173Z,10.20
2018-12-07T03:14:02.663Z,10.10
2018-12-07T03:16:31.007Z,10.10
2018-12-07T03:19:00.687Z,10.10
2018-12-07T03:21:31.034Z,10.10
2018-12-07T03:23:59.445Z,10.10
2018-12-07T03:26:29.554Z,10.10
2018-12-07T03:28:58.014Z,10.00
2018-12-07T03:31:26.457Z,10.00
2018-12-07T03:33:55.052Z,10.00
2018-12-07T03:36:23.441Z,10.10
2018-12-07T03:38:51.793Z,10.10
2018-12-07T03:41:21.430Z,10.10
2018-12-07T03:43:49.853Z,10.10
2018-12-07T03:46:18.270Z,10.10
2018-12-07T03:48:48.364Z,10.10
2018-12-07T03:51:16.771Z,10.10
2018-12-07T03:53:45.147Z,10.10
2018-12-07T03:56:14.916Z,10.10
2018-12-07T03:58:43.436Z,10.10
2018-12-07T04:01:11.847Z,10.10
2018-12-07T04:03:41.709Z,10.00
2018-12-07T04:06:10.417Z,10.10
2018-12-07T04:08:39.627Z,9.90
2018-12-07T04:11:07.992Z,10.10
2018-12-07T04:13:36.485Z,10.10
2018-12-07T04:16:04.936Z,10.10
2018-12-07T04:18:33.432Z,10.10
2018-12-07T04:21:01.921Z,10.20
2018-12-07T04:23:30.380Z,10.20
2018-12-07T04:25:59.612Z,10.20
2018-12-07T04:28:28.007Z,10.20
2018-12-07T04:30:56.452Z,10.20
2018-12-07T04:33:25.144Z,10.10
2018-12-07T04:35:54.584Z,10.20
2018-12-07T04:38:22.967Z,10.10
2018-12-07T04:40:51.388Z,10.10
2018-12-07T04:43:20.288Z,10.10
2018-12-07T04:45:48.671Z,10.10
2018-12-07T04:48:17.025Z,10.00
2018-12-07T04:50:45.508Z,10.00
2018-12-07T04:53:13.886Z,10.00
2018-12-07T04:55:42.334Z,9.80
2018-12-07T04:58:10.755Z,10.00
2018-12-07T05:00:39.229Z,10.00
2018-12-07T05:03:07.600Z,10.00
2018-12-07T05:05:35.942Z,10.00
2018-12-07T05:08:05.081Z,10.10
2018-12-07T05:10:33.412Z,10.10
2018-12-07T05:13:01.909Z,10.00
2018-12-07T05:15:30.307Z,10.00
2018-12-07T05:17:58.653Z,10.20
2018-12-07T05:20:27.031Z,10.10
2018-12-07T05:22:55.485Z,10.00
2018-12-07T05:25:24.977Z,10.00
2018-12-07T05:27:53.333Z,10.00
2018-12-07T05:30:22.777Z,10.00
2018-12-07T05:32:51.241Z,10.00
2018-12-07T05:35:19.835Z,10.00
2018-12-07T05:37:48.247Z,10.00
2018-12-07T05:40:16.729Z,10.00
2018-12-07T05:42:46.893Z,10.00
2018-12-07T05:45:15.747Z,10.00
2018-12-07T05:47:44.161Z,9.90
2018-12-07T05:50:12.580Z,9.90
2018-12-07T05:52:40.926Z,9.90
2018-12-07T05:55:10.085Z,9.90
2018-12-07T05:57:38.484Z,9.80
2018-12-07T06:00:08.076Z,9.90
2018-12-07T06:02:36.460Z,9.90
2018-12-07T06:05:06.508Z,9.80
2018-12-07T06:07:34.895Z,9.80
2018-12-07T06:10:03.291Z,9.70
2018-12-07T06:12:31.676Z,9.70
2018-12-07T06:15:00.095Z,9.60
2018-12-07T06:17:28.470Z,9.70
2018-12-07T06:19:57.485Z,9.70
2018-12-07T06:22:25.926Z,9.60
2018-12-07T06:24:54.435Z,9.70
2018-12-07T06:27:22.800Z,9.70
2018-12-07T06:29:51.525Z,9.70
2018-12-07T06:32:19.893Z,9.70
2018-12-07T06:34:48.285Z,9.70
2018-12-07T06:37:16.669Z,9.70
2018-12-07T06:39:45.108Z,9.70
2018-12-07T06:42:13.524Z,9.70
2018-12-07T06:44:41.904Z,9.60
2018-12-07T06:47:10.302Z,9.70
2018-12-07T06:49:38.797Z,9.70
2018-12-07T06:52:07.149Z,9.70
2018-12-07T06:54:35.533Z,9.60
2018-12-07T06:57:03.934Z,9.70
2018-12-07T06:59:32.666Z,9.60
2018-12-07T07:02:01.131Z,9.60
2018-12-07T07:04:29.568Z,9.60
2018-12-07T07:06:58.861Z,9.60
2018-12-07T07:09:27.496Z,9.60
2018-12-07T07:11:55.892Z,9.60
2018-12-07T07:14:24.312Z,9.60
2018-12-07T07:16:52.652Z,9.60
2018-12-07T07:19:21.096Z,9.50
2018-12-07T07:21:49.848Z,9.60
2018-12-07T07:24:18.786Z,9.60
2018-12-07T07:26:47.144Z,9.60
2018-12-07T07:29:15.725Z,9.60
2018-12-07T07:31:44.263Z,9.70
2018-12-07T07:34:12.641Z,9.60
2018-12-07T07:36:41.064Z,9.50
2018-12-07T07:39:09.457Z,9.60
2018-12-07T07:41:37.827Z,9.60
2018-12-07T07:44:06.203Z,9.50
2018-12-07T07:46:34.566Z,9.60
2018-12-07T07:49:02.960Z,9.70
2018-12-07T07:51:31.588Z,9.60
2018-12-07T07:53:59.973Z,9.60
2018-12-07T07:56:28.685Z,9.60
2018-12-07T07:58:57.015Z,9.60
2018-12-07T08:01:26.034Z,9.60
2018-12-07T08:03:54.434Z,9.60
2018-12-07T08:06:22.865Z,9.70
2018-12-07T08:08:51.220Z,9.70
2018-12-07T08:11:19.596Z,9.60
2018-12-07T08:13:48.039Z,9.60
2018-12-07T08:16:16.378Z,9.60
2018-12-07T08:18:44.974Z,9.60
2018-12-07T08:21:13.337Z,9.60
2018-12-07T08:23:42.651Z,9.60
2018-12-07T08:26:11.050Z,9.60
2018-12-07T08:28:40.396Z,9.60
2018-12-07T08:31:08.801Z,9.60
2018-12-07T08:33:37.315Z,9.50
2018-12-07T08:36:05.719Z,9.60
2018-12-07T08:38:34.105Z,9.50
2018-12-07T08:41:02.490Z,9.60
2018-12-07T08:43:30.876Z,9.50
2018-12-07T08:45:59.280Z,9.60
2018-12-07T08:48:27.768Z,9.60
2018-12-07T08:50:56.520Z,9.60
2018-12-07T08:53:24.890Z,9.50
2018-12-07T08:55:53.274Z,9.60
2018-12-07T08:58:21.620Z,9.60
2018-12-07T09:00:50.013Z,9.60
2018-12-07T09:03:18.412Z,9.60
2018-12-07T09:05:46.857Z,9.50
2018-12-07T09:08:15.661Z,9.50
2018-12-07T09:10:44.103Z,9.50
2018-12-07T09:13:13.714Z,9.50
2018-12-07T09:15:42.117Z,9.50
2018-12-07T09:18:10.995Z,9.50
2018-12-07T09:20:40.305Z,9.60
2018-12-07T09:23:08.659Z,9.60
2018-12-07T09:25:37.026Z,9.60
2018-12-07T09:28:05.372Z,9.50
2018-12-07T09:30:33.709Z,9.50
2018-12-07T09:33:02.067Z,9.40
2018-12-07T09:35:30.899Z,9.40
2018-12-07T09:38:00.338Z,9.40
2018-12-07T09:40:29.024Z,9.40
2018-12-07T09:42:57.632Z,9.40
2018-12-07T09:45:25.988Z,9.30
2018-12-07T09:47:54.385Z,9.40
2018-12-07T09:50:22.776Z,9.50
2018-12-07T09:52:51.151Z,9.50
2018-12-07T09:55:19.525Z,9.50
2018-12-07T09:57:47.895Z,9.40
2018-12-07T10:00:16.277Z,9.50
2018-12-07T10:02:44.644Z,9.50
2018-12-07T10:05:13.009Z,9.50
2018-12-07T10:07:41.376Z,9.50
2018-12-07T10:10:09.743Z,9.50
2018-12-07T10:12:38.096Z,9.50
2018-12-07T10:15:07.356Z,9.60
2018-12-07T10:17:35.738Z,9.60
2018-12-07T10:20:04.504Z,9.60
2018-12-07T10:22:32.877Z,9.50
2018-12-07T10:25:02.122Z,9.50
2018-12-07T10:27:30.459Z,9.60
2018-12-07T10:29:58.800Z,9.60
2018-12-07T10:32:27.156Z,9.60
2018-12-07T10:34:55.575Z,9.60
2018-12-07T10:37:24.237Z,9.60
2018-12-07T10:39:52.627Z,9.70
2018-12-07T10:42:21.011Z,9.70
2018-12-07T10:44:49.330Z,9.60
2018-12-07T10:47:17.695Z,9.60
2018-12-07T10:49:46.047Z,9.70
2018-12-07T10:52:14.433Z,9.70
2018-12-07T10:54:42.824Z,9.70
2018-12-07T10:57:11.190Z,9.60
2018-12-07T10:59:39.569Z,9.80
2018-12-07T11:02:13.139Z,9.70
2018-12-07T11:04:46.908Z,9.70
2018-12-07T11:08:24.345Z,9.70
2018-12-07T11:10:56.159Z,9.70
2018-12-07T11:13:29.822Z,9.70
2018-12-07T11:16:03.623Z,9.70
2018-12-07T11:18:37.408Z,9.60
2018-12-07T11:21:11.304Z,9.70
2018-12-07T11:23:44.935Z,9.70
2018-12-07T11:26:18.616Z,9.70
2018-12-07T11:28:52.229Z,9.70
2018-12-07T11:31:26.007Z,9.70
2018-12-07T11:33:59.885Z,9.70
2018-12-07T11:36:28.220Z,9.80
2018-12-07T11:38:56.580Z,9.80
2018-12-07T11:41:24.951Z,9.70
2018-12-07T11:43:53.257Z,9.80
2018-12-07T11:46:21.613Z,9.80
2018-12-07T11:48:50.039Z,9.80
2018-12-07T11:51:18.376Z,9.80
2018-12-07T11:53:47.971Z,9.80
2018-12-07T11:56:16.350Z,9.80
2018-12-07T11:58:44.690Z,9.80
2018-12-07T12:01:13.229Z,9.80
2018-12-07T12:03:41.567Z,9.80
2018-12-07T12:06:09.962Z,9.80
2018-12-07T12:08:38.377Z,9.80
2018-12-07T12:11:06.694Z,9.70
2018-12-07T12:13:35.064Z,9.60
2018-12-07T12:16:03.500Z,9.60
2018-12-07T12:18:31.886Z,9.50
2018-12-07T12:21:01.138Z,9.60
2018-12-07T12:23:29.551Z,9.50
2018-12-07T12:25:58.147Z,9.50
2018-12-07T12:28:27.385Z,9.50
2018-12-07T12:30:55.878Z,9.60
2018-12-07T12:33:24.290Z,9.50
2018-12-07T13:03:27.619Z,9.60
2018-12-07T13:05:56.227Z,9.70
2018-12-07T13:08:25.577Z,9.70
2018-12-07T13:13:32.959Z,9.50
2018-12-07T13:16:02.306Z,9.50
2018-12-07T13:18:30.986Z,9.50
2018-12-07T13:20:59.629Z,9.50
2018-12-07T13:23:33.788Z,9.40
2018-12-07T13:26:02.357Z,9.50
2018-12-07T13:28:32.172Z,9.40
2018-12-07T13:31:01.481Z,9.30
2018-12-07T13:33:30.744Z,9.40
2018-12-07T13:35:59.443Z,9.30
2018-12-07T13:38:28.771Z,9.30
2018-12-07T13:40:58.699Z,9.30
2018-12-07T13:43:27.417Z,9.30
2018-12-07T13:45:56.520Z,9.30
2018-12-07T13:48:32.085Z,9.20
2018-12-07T13:51:01.450Z,9.20
2018-12-07T13:53:30.327Z,9.20
2018-12-07T13:56:00.183Z,9.20
2018-12-07T13:58:29.484Z,9.10
2018-12-07T14:01:00.832Z,9.10
2018-12-07T14:03:33.742Z,9.10
2018-12-07T14:06:02.293Z,9.10
2018-12-07T14:08:30.844Z,9.10
2018-12-07T14:10:59.361Z,9.00
2018-12-07T14:13:28.703Z,9.00
2018-12-07T14:15:57.622Z,8.90
2018-12-07T14:18:26.702Z,9.00
2018-12-07T14:20:55.679Z,8.90
2018-12-07T14:23:25.562Z,8.70
2018-12-07T14:25:54.239Z,8.80
2018-12-07T14:28:23.987Z,8.80
2018-12-07T14:30:52.883Z,8.70
2018-12-07T14:33:21.625Z,8.70
2018-12-07T14:35:50.649Z,8.60
2018-12-07T14:38:20.016Z,8.60
2018-12-07T14:40:49.256Z,8.60
2018-12-07T14:43:17.982Z,8.60
2018-12-07T14:45:47.759Z,8.50
2018-12-07T14:48:16.679Z,8.50
2018-12-07T14:50:45.887Z,8.50
2018-12-07T14:53:17.386Z,8.50
2018-12-07T14:55:47.298Z,8.60
2018-12-07T14:58:23.329Z,8.60
2018-12-07T15:01:09.089Z,8.70
2018-12-07T15:03:37.793Z,7.70
2018-12-07T15:06:07.619Z,8.80
2018-12-07T15:08:37.901Z,8.70
2018-12-07T15:11:07.549Z,8.60
2018-12-07T15:13:36.223Z,8.60
2018-12-07T15:16:05.016Z,8.50
2018-12-07T15:18:34.639Z,8.60
2018-12-07T15:21:04.855Z,8.60
2018-12-07T15:23:36.575Z,8.70
2018-12-07T15:26:05.443Z,8.70
2018-12-07T15:28:35.825Z,8.70
2018-12-07T15:31:05.981Z,8.70
2018-12-07T15:33:35.620Z,8.50
2018-12-07T15:36:05.489Z,8.60
2018-12-07T15:38:35.404Z,8.50
2018-12-07T15:41:06.666Z,8.40
2018-12-07T15:43:40.938Z,8.20
2018-12-07T15:46:15.321Z,8.30
2018-12-07T15:48:45.157Z,8.20
2018-12-07T15:51:14.294Z,8.20
2018-12-07T15:53:43.741Z,8.10
2018-12-07T15:56:12.449Z,8.10
2018-12-07T15:58:42.066Z,8.10
2018-12-07T16:01:11.910Z,8.10
2018-12-07T16:03:40.692Z,8.00
2018-12-07T16:06:09.800Z,8.00
2018-12-07T16:08:38.584Z,8.00
2018-12-07T16:11:07.735Z,8.00
2018-12-07T16:13:36.756Z,8.00
2018-12-07T16:16:06.486Z,7.90
2018-12-07T16:18:35.148Z,7.90
2018-12-07T16:21:03.857Z,7.90
2018-12-07T16:23:33.945Z,7.90
2018-12-07T16:26:03.109Z,7.90
2018-12-07T16:28:32.486Z,7.80
2018-12-07T16:31:01.631Z,7.80
2018-12-07T16:33:30.713Z,8.00
2018-12-07T16:35:59.417Z,7.90
2018-12-07T16:38:28.346Z,7.80
2018-12-07T16:40:59.413Z,7.80
2018-12-07T16:43:28.424Z,7.80
2018-12-07T16:45:57.372Z,7.90
2018-12-07T16:48:28.749Z,7.70
2018-12-07T16:50:57.624Z,7.70
2018-12-07T16:53:28.509Z,7.70
2018-12-07T16:55:57.502Z,7.70
2018-12-07T16:58:27.302Z,7.70
2018-12-07T17:00:59.958Z,7.70
2018-12-07T17:03:29.195Z,7.60
2018-12-07T17:06:00.533Z,7.70
2018-12-07T17:08:29.823Z,7.70
2018-12-07T17:10:59.309Z,7.70
2018-12-07T17:13:30.697Z,7.70
2018-12-07T17:15:59.509Z,7.70
2018-12-07T17:18:31.851Z,7.50
2018-12-07T17:21:03.399Z,7.70
2018-12-07T17:23:33.885Z,7.70
2018-12-07T17:26:03.663Z,7.70
2018-12-07T17:28:32.390Z,7.70
2018-12-07T17:31:00.998Z,7.70
2018-12-07T17:33:30.536Z,7.70
2018-12-07T17:36:03.365Z,7.70
2018-12-07T17:38:33.573Z,7.80
2018-12-07T17:41:03.017Z,7.70
2018-12-07T17:43:33.008Z,7.70
2018-12-07T17:46:02.058Z,7.90
2018-12-07T17:48:30.579Z,7.70
2018-12-07T17:50:59.267Z,7.70
2018-12-07T17:53:27.726Z,7.70
2018-12-07T17:55:57.383Z,7.80
2018-12-07T17:58:26.112Z,7.70
2018-12-07T18:00:55.519Z,7.80
2018-12-07T18:03:24.264Z,7.80
2018-12-07T18:05:53.562Z,7.80
2018-12-07T18:08:22.055Z,7.80
2018-12-07T18:10:50.642Z,7.80
2018-12-07T18:13:19.249Z,7.80
2018-12-07T18:15:47.975Z,7.80
2018-12-07T18:18:16.982Z,7.90
2018-12-07T18:20:46.024Z,7.90
2018-12-07T18:23:14.988Z,7.90
2018-12-07T18:25:43.732Z,7.80
2018-12-07T18:28:12.549Z,7.90
2018-12-07T18:30:41.598Z,7.90
2018-12-07T18:33:10.328Z,7.90
2018-12-07T18:35:40.103Z,7.90
2018-12-07T18:38:09.083Z,7.80
2018-12-07T18:40:38.383Z,7.80
2018-12-07T18:43:08.588Z,7.70
2018-12-07T18:45:37.722Z,7.60
2018-12-07T18:48:12.538Z,7.60
2018-12-07T18:50:45.946Z,7.40
2018-12-07T18:53:14.882Z,7.20
2018-12-07T18:55:43.875Z,7.10
2018-12-07T18:58:12.697Z,7.00
2018-12-07T19:00:41.463Z,6.80
2018-12-07T19:03:10.088Z,6.80
2018-12-07T19:05:39.080Z,6.60
2018-12-07T19:08:07.746Z,6.50
2018-12-07T19:10:40.326Z,6.40
2018-12-07T19:13:10.026Z,6.30
2018-12-07T19:15:38.967Z,6.30
2018-12-07T19:18:07.442Z,6.30
2018-12-07T19:20:36.194Z,6.30
2018-12-07T19:23:07.862Z,6.20
2018-12-07T19:25:36.555Z,6.10
2018-12-07T19:28:06.707Z,6.10
2018-12-07T19:30:36.702Z,6.10
2018-12-07T19:33:05.732Z,6.10
2018-12-07T19:35:35.495Z,6.10
2018-12-07T19:38:05.475Z,6.10
2018-12-07T19:40:34.126Z,6.10
2018-12-07T19:43:03.546Z,6.10
2018-12-07T19:45:32.879Z,6.10
2018-12-07T19:48:01.984Z,6.20
2018-12-07T19:50:30.698Z,6.20
2018-12-07T19:52:59.878Z,6.10
2018-12-07T19:55:28.573Z,6.20
2018-12-07T19:57:58.510Z,6.10
2018-12-07T20:00:27.065Z,6.10
2018-12-07T20:02:56.010Z,6.00
2018-12-07T20:05:24.738Z,6.00
2018-12-07T20:07:55.170Z,5.90
2018-12-07T20:10:25.336Z,5.90
2018-12-07T20:12:55.578Z,5.80
2018-12-07T20:15:24.405Z,5.70
2018-12-07T20:17:53.883Z,5.60
2018-12-07T20:20:23.274Z,5.60
2018-12-07T20:22:52.923Z,5.70
2018-12-07T20:25:22.483Z,5.60
2018-12-07T20:27:53.777Z,5.50
2018-12-07T20:30:24.145Z,5.50
2018-12-07T20:32:52.830Z,5.50
2018-12-07T20:35:22.265Z,5.50
2018-12-07T20:37:51.816Z,5.40
2018-12-07T20:40:20.741Z,5.40
2018-12-07T20:42:52.146Z,5.40
2018-12-07T20:45:23.414Z,5.30
2018-12-07T20:47:51.857Z,5.40
2018-12-07T20:50:21.149Z,5.30
2018-12-07T20:52:50.362Z,5.30
2018-12-07T20:55:19.133Z,5.30
2018-12-07T20:57:48.450Z,5.40
2018-12-07T21:00:19.566Z,5.50
2018-12-07T21:02:48.045Z,5.50
2018-12-07T21:05:33.790Z,5.50
2018-12-07T21:11:14.331Z,5.50
2018-12-07T21:14:04.337Z,5.50
2018-12-07T21:17:16.775Z,5.30
2018-12-07T21:20:21.554Z,5.30
2018-12-07T21:22:50.477Z,5.30
2018-12-07T21:25:19.356Z,5.30
2018-12-07T21:27:47.903Z,5.30
2018-12-07T21:30:56.998Z,5.30
2018-12-07T21:33:37.409Z,5.40
2018-12-07T21:36:40.003Z,5.50
2018-12-07T21:39:16.105Z,5.50
2018-12-07T21:41:45.830Z,5.50
2018-12-07T21:44:16.793Z,5.60
2018-12-07T21:46:46.162Z,5.50
2018-12-07T21:49:15.375Z,5.50
2018-12-07T21:51:53.043Z,5.40
2018-12-07T21:54:21.913Z,5.40
2018-12-07T21:56:50.686Z,5.30
2018-12-07T21:59:19.811Z,5.30
2018-12-07T22:01:49.084Z,5.30
2018-12-07T22:04:18.476Z,5.40
2018-12-07T22:06:47.309Z,5.40
2018-12-07T22:09:16.728Z,5.40
2018-12-07T22:11:47.045Z,5.40
2018-12-07T22:14:16.465Z,5.30
2018-12-07T22:16:46.328Z,5.20
2018-12-07T22:19:15.032Z,5.30
2018-12-07T22:21:44.743Z,5.10
2018-12-07T22:24:13.179Z,5.30
2018-12-07T22:26:42.616Z,5.20
2018-12-07T22:29:11.421Z,5.20
2018-12-07T22:31:40.667Z,5.20
2018-12-07T22:34:09.144Z,5.20
2018-12-07T22:36:37.797Z,5.20
2018-12-07T22:39:11.659Z,5.20
2018-12-07T22:41:42.426Z,5.20
2018-12-07T22:44:11.724Z,5.20
2018-12-07T22:46:41.476Z,5.20
2018-12-07T22:49:10.175Z,5.20
2018-12-07T22:51:38.845Z,5.20
2018-12-07T22:54:07.899Z,5.20
2018-12-07T22:56:36.676Z,5.20
2018-12-07T22:59:06.217Z,5.20
2018-12-07T23:01:34.738Z,5.20
2018-12-07T23:04:03.980Z,5.20
2018-12-07T23:06:32.508Z,5.10
2018-12-07T23:09:01.136Z,5.20
2018-12-07T23:11:31.762Z,5.20
2018-12-07T23:14:00.270Z,5.10
2018-12-07T23:16:29.991Z,5.20
2018-12-07T23:18:59.184Z,5.30
2018-12-07T23:21:28.758Z,5.20
2018-12-07T23:23:57.458Z,5.20
2018-12-07T23:26:26.173Z,5.10
2018-12-07T23:28:55.446Z,5.10
2018-12-07T23:31:23.923Z,5.00
2018-12-07T23:33:52.467Z,5.10
2018-12-07T23:36:20.941Z,5.10
2018-12-07T23:38:49.650Z,5.10
2018-12-07T23:41:18.083Z,5.00
2018-12-07T23:43:46.595Z,5.00
2018-12-07T23:46:15.834Z,5.00
2018-12-07T23:48:44.303Z,5.00
2018-12-07T23:51:12.766Z,5.10
2018-12-07T23:53:41.396Z,5.10
2018-12-07T23:56:09.925Z,5.10
2018-12-07T23:58:38.411Z,5.10
